Fayetteville, North Carolina
Current Conditions -  °F | °C
As of 2:53 AM on Friday 19 Dec 2014 (Local Time) from KFAY Reporting Station
Overcast Overcast  
Wind Chill: 39°   Ceiling: 7000
Heat Index: 39°   Visibility: 10mi
Dew Point: 36°   Wind: 3mph
Humidity: 89%   Direction: 10°N
Pressure: 30.1"   Gusts: NA
Location:  35.05°N, 78.88°W
Report Text: KFAY 190753Z AUTO 01003KT 10SM OVC070 04/02 A3010 RMK AO2 SLP188 T00390022
Loading
Personal Weather Stations






























Interactive Weather Map New forecast layout! Learn more

10-Day Weather Forecast

Advertisements
Track Severe Weather on mobile